Time;durP1;ratioP1;P1;durP2;ratioP2;P2;SDS_P1;SDS_P2;PMS_P1;PMS_P2;Temp;Humidity;BMP_temperature;BMP_pressure;BME280_temperature;BME280_humidity;BME280_pressure;Samples;Min_cycle;Max_cycle;Signal;HPM_P1;HPM_P2
2022/12/14 00:02:14;;;;;;;16.13;12.13;;;-0.70;99.90;;;;;;5113995;28;20447;-59
2022/12/14 00:04:41;;;;;;;20.90;12.77;;;-0.70;99.90;;;;;;5113953;28;20482;-59
2022/12/14 00:07:08;;;;;;;15.10;11.03;;;-0.70;99.90;;;;;;5113957;28;20450;-59
2022/12/14 00:09:35;;;;;;;14.50;11.73;;;-0.60;99.90;;;;;;5113499;28;20553;-59
2022/12/14 00:12:02;;;;;;;14.93;11.30;;;-0.60;99.90;;;;;;5113608;28;20453;-59
2022/12/14 00:14:30;;;;;;;16.23;12.10;;;-0.50;99.90;;;;;;5113820;28;20482;-59
2022/12/14 00:16:58;;;;;;;16.73;11.90;;;-0.50;99.90;;;;;;5113578;28;20962;-59
2022/12/14 00:19:25;;;;;;;14.60;11.90;;;-0.60;99.90;;;;;;5113363;28;20966;-59
2022/12/14 00:21:52;;;;;;;14.10;10.63;;;-0.60;99.90;;;;;;5113456;28;20959;-59
2022/12/14 00:24:20;;;;;;;11.73;10.17;;;-0.60;99.90;;;;;;5113440;28;20439;-61
2022/12/14 00:26:47;;;;;;;14.90;11.67;;;-0.60;99.90;;;;;;5113896;28;20541;-59
2022/12/14 00:29:14;;;;;;;16.00;12.17;;;-0.50;99.90;;;;;;5113376;28;20473;-59
2022/12/14 00:31:41;;;;;;;17.30;13.00;;;-0.60;99.90;;;;;;5113742;28;20443;-59
2022/12/14 00:34:10;;;;;;;17.47;13.43;;;-0.60;99.90;;;;;;5113708;28;20557;-59
2022/12/14 00:36:37;;;;;;;17.13;11.83;;;-0.70;99.90;;;;;;5113294;28;20442;-59
2022/12/14 00:39:04;;;;;;;17.97;11.40;;;-0.70;99.90;;;;;;5113244;28;20482;-59
2022/12/14 00:41:31;;;;;;;18.70;10.83;;;-0.70;99.90;;;;;;5113993;28;20529;-59
2022/12/14 00:43:59;;;;;;;13.20;9.63;;;-0.70;99.90;;;;;;5113707;28;20451;-59
2022/12/14 00:46:26;;;;;;;16.70;11.60;;;-0.60;99.90;;;;;;5113649;28;20876;-61
2022/12/14 00:48:53;;;;;;;14.13;11.27;;;-0.60;99.90;;;;;;5113086;28;20447;-59
2022/12/14 00:51:22;;;;;;;18.23;12.33;;;-0.60;99.90;;;;;;5113367;28;20949;-59
2022/12/14 00:53:49;;;;;;;17.33;10.70;;;-0.70;99.90;;;;;;5115507;28;20485;-61
2022/12/14 00:56:16;;;;;;;13.10;11.70;;;-0.70;99.90;;;;;;5117405;28;20442;-61
2022/12/14 00:58:43;;;;;;;15.40;11.80;;;-0.70;99.90;;;;;;5117037;28;20454;-62
2022/12/14 01:01:12;;;;;;;18.13;13.90;;;-0.70;99.90;;;;;;5117123;28;20498;-59
2022/12/14 01:03:39;;;;;;;16.60;12.90;;;-0.70;99.90;;;;;;5117272;28;20810;-60
2022/12/14 01:06:12;;;;;;;14.93;12.10;;;-0.70;99.90;;;;;;5116840;28;20438;-61
2022/12/14 01:08:41;;;;;;;13.37;12.00;;;-0.70;99.90;;;;;;5117431;28;20920;-61
2022/12/14 01:11:10;;;;;;;19.27;11.83;;;-0.70;99.90;;;;;;5117086;28;20473;-61
2022/12/14 01:13:38;;;;;;;15.23;11.90;;;-0.60;99.90;;;;;;5117112;28;20468;-61
2022/12/14 01:16:07;;;;;;;14.23;10.60;;;-0.70;99.90;;;;;;5116901;28;20557;-61
2022/12/14 01:18:36;;;;;;;15.93;12.60;;;-0.70;99.90;;;;;;5116926;28;20526;-60
2022/12/14 01:21:12;;;;;;;15.67;11.50;;;-0.60;99.90;;;;;;5116828;28;20462;-60
2022/12/14 01:23:42;;;;;;;15.97;12.40;;;-0.60;99.90;;;;;;5116822;28;20442;-60
2022/12/14 01:26:10;;;;;;;17.80;11.57;;;-0.40;99.90;;;;;;5116932;28;20427;-61
2022/12/14 01:28:37;;;;;;;15.70;11.67;;;-0.40;99.90;;;;;;5116732;28;20497;-61
2022/12/14 01:31:10;;;;;;;16.43;11.97;;;-0.40;99.90;;;;;;5116793;28;20505;-61
2022/12/14 01:33:37;;;;;;;16.10;11.83;;;-0.30;99.90;;;;;;5116361;28;20449;-61
2022/12/14 01:36:06;;;;;;;17.13;13.23;;;-0.40;99.90;;;;;;5116306;28;20475;-61
2022/12/14 01:38:33;;;;;;;18.20;12.73;;;-0.40;99.90;;;;;;5116076;28;20478;-61
2022/12/14 01:41:02;;;;;;;17.60;12.00;;;-0.40;99.90;;;;;;5116237;28;20553;-61
2022/12/14 01:43:45;;;;;;;15.87;11.97;;;-0.40;99.90;;;;;;5116591;28;20474;-61
2022/12/14 01:46:14;;;;;;;15.77;11.27;;;-0.60;99.90;;;;;;5116495;28;20423;-61
2022/12/14 01:48:42;;;;;;;13.50;11.57;;;-0.60;99.90;;;;;;5116287;28;20526;-61
2022/12/14 01:51:09;;;;;;;17.80;10.80;;;-0.50;99.90;;;;;;5116401;28;20553;-61
2022/12/14 01:53:36;;;;;;;16.03;11.33;;;-0.60;99.90;;;;;;5116263;28;20481;-61
2022/12/14 01:56:06;;;;;;;22.40;13.00;;;-0.60;99.90;;;;;;5116191;28;20517;-61
2022/12/14 01:58:33;;;;;;;13.13;11.33;;;-0.40;99.90;;;;;;5115801;28;20442;-61
2022/12/14 02:01:02;;;;;;;18.67;14.43;;;-0.50;99.90;;;;;;5115903;28;20468;-61
2022/12/14 02:03:34;;;;;;;17.10;12.30;;;-0.40;99.90;;;;;;5115747;28;20449;-61
2022/12/14 02:06:07;;;;;;;14.60;11.30;;;-0.40;99.90;;;;;;5115244;28;20423;-61
2022/12/14 02:08:35;;;;;;;17.83;12.77;;;-0.40;99.90;;;;;;5116238;28;20490;-61
2022/12/14 02:11:05;;;;;;;12.57;11.27;;;-0.40;99.90;;;;;;5115610;28;20838;-61
2022/12/14 02:13:34;;;;;;;15.10;11.90;;;-0.40;99.90;;;;;;5115780;28;20453;-61
2022/12/14 02:16:01;;;;;;;21.97;13.33;;;-0.40;99.90;;;;;;5115854;28;20502;-61
2022/12/14 02:18:30;;;;;;;14.80;11.30;;;-0.50;99.90;;;;;;5115715;28;20561;-61
2022/12/14 02:21:18;;;;;;;19.27;13.73;;;-0.40;99.90;;;;;;5115341;28;20549;-60
2022/12/14 02:24:12;;;;;;;15.70;12.20;;;-0.30;99.90;;;;;;5115750;28;20455;-61
2022/12/14 02:27:10;;;;;;;13.00;11.67;;;-0.40;99.90;;;;;;5113435;28;20489;-60
2022/12/14 02:29:55;;;;;;;15.73;12.43;;;-0.30;99.90;;;;;;5115357;28;20465;-60
2022/12/14 02:32:47;;;;;;;19.97;14.43;;;-0.40;99.90;;;;;;5115465;28;20803;-61
2022/12/14 02:35:23;;;;;;;16.17;12.53;;;-0.50;99.90;;;;;;5115122;28;20478;-61
2022/12/14 02:38:00;;;;;;;18.30;11.17;;;-0.60;99.90;;;;;;5115044;28;20569;-60
2022/12/14 02:40:33;;;;;;;20.33;14.27;;;-0.60;99.90;;;;;;5115338;28;20501;-61
2022/12/14 02:43:12;;;;;;;16.97;11.50;;;-0.60;99.90;;;;;;5115324;28;20427;-61
2022/12/14 02:45:45;;;;;;;19.80;13.90;;;-0.70;99.90;;;;;;5115422;28;20423;-60
2022/12/14 02:48:17;;;;;;;20.03;14.77;;;-0.60;99.90;;;;;;5115168;28;20470;-61
2022/12/14 02:50:51;;;;;;;19.07;12.73;;;-0.50;99.90;;;;;;5115186;28;20550;-61
2022/12/14 02:53:26;;;;;;;18.67;14.37;;;-0.30;99.90;;;;;;5114887;28;20433;-61
2022/12/14 02:55:57;;;;;;;18.03;13.20;;;-0.30;99.90;;;;;;5115002;28;20498;-61
2022/12/14 02:58:29;;;;;;;16.63;13.67;;;-0.40;99.90;;;;;;5114799;28;20458;-61
2022/12/14 03:00:59;;;;;;;18.27;12.83;;;-0.50;99.90;;;;;;5114612;28;20546;-61
2022/12/14 03:03:26;;;;;;;16.67;13.80;;;-0.50;99.90;;;;;;5114641;28;21035;-61
2022/12/14 03:05:58;;;;;;;17.87;13.20;;;-0.40;99.90;;;;;;5114535;28;20475;-62
2022/12/14 03:08:27;;;;;;;15.70;12.90;;;-0.30;99.90;;;;;;5114627;28;20482;-61
2022/12/14 03:10:58;;;;;;;17.77;14.07;;;-0.20;99.90;;;;;;5114352;28;20966;-61
2022/12/14 03:13:29;;;;;;;15.70;12.70;;;-0.20;99.90;;;;;;5114920;28;20510;-61
2022/12/14 03:16:04;;;;;;;15.53;12.77;;;-0.20;99.90;;;;;;5114256;28;20562;-61
2022/12/14 03:18:37;;;;;;;18.33;11.50;;;-0.30;99.90;;;;;;5114003;28;20941;-62
2022/12/14 03:21:08;;;;;;;18.00;13.13;;;-0.30;99.90;;;;;;5114246;28;20963;-61
2022/12/14 03:23:41;;;;;;;19.47;13.97;;;-0.30;99.90;;;;;;5114578;28;20557;-61
2022/12/14 03:26:13;;;;;;;18.20;12.83;;;-0.30;99.90;;;;;;5114713;28;20450;-61
2022/12/14 03:28:45;;;;;;;15.50;12.70;;;-0.40;99.90;;;;;;5114212;28;20427;-61
2022/12/14 03:31:17;;;;;;;13.60;12.20;;;-0.40;99.90;;;;;;5114210;28;20441;-61
2022/12/14 03:33:47;;;;;;;17.47;14.40;;;-0.50;99.90;;;;;;5114398;28;20461;-61
2022/12/14 03:36:19;;;;;;;18.33;14.03;;;-0.60;99.90;;;;;;5114081;28;20467;-61
2022/12/14 03:38:50;;;;;;;18.60;15.00;;;-0.60;99.90;;;;;;5113780;28;20548;-61
2022/12/14 03:41:28;;;;;;;16.80;14.00;;;-0.70;99.90;;;;;;5114274;28;20968;-61
2022/12/14 03:44:08;;;;;;;16.60;13.77;;;-0.70;99.90;;;;;;5114006;28;20462;-61
2022/12/14 03:46:43;;;;;;;16.50;13.47;;;-0.70;99.90;;;;;;5114101;28;20423;-61
2022/12/14 03:49:18;;;;;;;18.23;14.97;;;-0.60;99.90;;;;;;5114297;28;20462;-61
2022/12/14 03:51:55;;;;;;;22.23;15.43;;;-0.50;99.90;;;;;;5114005;28;20422;-61
2022/12/14 03:54:27;;;;;;;18.70;15.50;;;-0.60;99.90;;;;;;5113847;28;20436;-61
2022/12/14 03:57:01;;;;;;;20.10;14.97;;;-0.60;99.90;;;;;;5114063;28;20467;-61
2022/12/14 03:59:37;;;;;;;22.23;14.63;;;-0.60;99.90;;;;;;5114019;28;20466;-61
2022/12/14 04:02:11;;;;;;;18.67;15.47;;;-0.60;99.90;;;;;;5113892;28;20499;-61
2022/12/14 04:04:46;;;;;;;23.87;16.70;;;-0.70;99.90;;;;;;5114158;28;20466;-60
2022/12/14 04:07:17;;;;;;;20.00;15.20;;;-0.60;99.90;;;;;;5114122;28;20905;-61
2022/12/14 04:09:52;;;;;;;18.57;15.20;;;-0.50;99.90;;;;;;5113664;28;20469;-61
2022/12/14 04:20:51;;;;;;;22.27;14.23;;;-0.70;99.90;;;;;;5114082;28;20797;-61
2022/12/14 04:26:06;;;;;;;18.60;16.23;;;-0.70;99.90;;;;;;5112625;28;20494;-61
2022/12/14 04:31:28;;;;;;;20.80;14.90;;;-0.70;99.90;;;;;;5118030;28;20540;-61
2022/12/14 04:34:01;;;;;;;17.80;13.90;;;-0.70;99.90;;;;;;5117544;28;20433;-61
2022/12/14 04:36:32;;;;;;;22.17;15.67;;;-0.60;99.90;;;;;;5117491;28;20469;-61
2022/12/14 04:39:04;;;;;;;21.90;16.37;;;-0.50;99.90;;;;;;5117246;28;20478;-61
2022/12/14 04:41:35;;;;;;;19.37;15.27;;;-0.50;99.90;;;;;;5117416;28;20430;-61
2022/12/14 04:44:08;;;;;;;22.33;14.90;;;-0.40;99.90;;;;;;5117631;28;20794;-61
2022/12/14 04:46:38;;;;;;;22.40;15.80;;;-0.30;99.90;;;;;;5117339;28;20466;-61
2022/12/14 04:49:16;;;;;;;19.57;15.17;;;-0.40;99.90;;;;;;5117036;28;20514;-61
2022/12/14 04:51:49;;;;;;;18.93;14.63;;;-0.40;99.90;;;;;;5117572;28;20510;-61
2022/12/14 04:54:22;;;;;;;20.20;14.67;;;-0.40;99.90;;;;;;5117461;28;20434;-61
2022/12/14 04:56:57;;;;;;;18.60;15.50;;;-0.40;99.90;;;;;;5117410;28;20462;-61
2022/12/14 04:59:25;;;;;;;21.70;16.40;;;-0.40;99.90;;;;;;5117000;28;20462;-61
2022/12/14 05:02:03;;;;;;;20.00;14.17;;;-0.40;99.90;;;;;;5116936;28;20533;-61
2022/12/14 05:04:53;;;;;;;20.83;15.57;;;-0.40;99.90;;;;;;5116997;28;20813;-61
2022/12/14 05:07:34;;;;;;;20.30;14.10;;;-0.30;99.90;;;;;;5117009;28;20454;-61
2022/12/14 05:10:06;;;;;;;25.90;16.37;;;-0.20;99.90;;;;;;5116871;28;20987;-61
2022/12/14 05:12:39;;;;;;;21.83;16.90;;;-0.10;99.90;;;;;;5116826;28;20508;-61
2022/12/14 05:15:10;;;;;;;22.83;15.30;;;-0.20;99.90;;;;;;5116692;28;20426;-61
2022/12/14 05:17:38;;;;;;;23.20;16.20;;;0.00;99.90;;;;;;5116743;28;20513;-61
2022/12/14 05:20:14;;;;;;;27.23;16.90;;;0.00;99.90;;;;;;5116758;28;20556;-61
2022/12/14 05:22:42;;;;;;;18.20;15.07;;;-0.10;99.90;;;;;;5116906;28;20433;-61
2022/12/14 05:25:10;;;;;;;21.17;15.27;;;-0.10;99.90;;;;;;5116530;28;20443;-61
2022/12/14 05:27:37;;;;;;;20.40;16.70;;;-0.10;99.90;;;;;;5116390;28;20993;-61
2022/12/14 05:30:06;;;;;;;20.40;16.37;;;-0.10;99.90;;;;;;5116751;28;20462;-61
2022/12/14 05:32:34;;;;;;;25.00;16.80;;;-0.10;99.90;;;;;;5116570;28;20446;-61
2022/12/14 05:35:02;;;;;;;23.83;18.07;;;-0.20;99.90;;;;;;5116391;28;20964;-61
2022/12/14 05:37:30;;;;;;;25.10;17.87;;;-0.10;99.90;;;;;;5116068;28;20539;-61
2022/12/14 05:39:58;;;;;;;23.70;15.27;;;-0.10;99.90;;;;;;5115138;28;20523;-62
2022/12/14 05:42:25;;;;;;;23.70;16.87;;;-0.30;99.90;;;;;;5116396;28;20450;-61
2022/12/14 05:44:52;;;;;;;23.17;16.80;;;-0.30;99.90;;;;;;5116461;28;20485;-61
2022/12/14 05:47:20;;;;;;;26.40;17.83;;;-0.30;99.90;;;;;;5116059;28;20439;-61
2022/12/14 05:49:47;;;;;;;26.10;18.60;;;-0.20;99.90;;;;;;5115934;28;20502;-61
2022/12/14 05:52:14;;;;;;;23.83;17.17;;;-0.30;99.90;;;;;;5116203;28;20478;-61
2022/12/14 05:54:43;;;;;;;22.33;17.33;;;-0.30;99.90;;;;;;5116351;28;20943;-61
2022/12/14 05:57:11;;;;;;;22.33;17.50;;;-0.30;99.90;;;;;;5115810;28;20816;-61
2022/12/14 05:59:39;;;;;;;22.77;17.40;;;-0.20;99.90;;;;;;5115744;28;20549;-61
2022/12/14 06:02:06;;;;;;;28.87;19.63;;;-0.10;99.90;;;;;;5116162;28;20850;-61
2022/12/14 06:04:33;;;;;;;26.27;17.30;;;-0.10;99.90;;;;;;5116023;28;20503;-61
2022/12/14 06:07:00;;;;;;;23.27;18.80;;;-0.20;99.90;;;;;;5116002;28;20454;-61
2022/12/14 06:09:28;;;;;;;24.40;17.70;;;-0.30;99.90;;;;;;5115493;28;20467;-61
2022/12/14 06:11:56;;;;;;;20.20;17.70;;;-0.20;99.90;;;;;;5115529;28;20504;-61
2022/12/14 06:14:24;;;;;;;27.10;20.40;;;-0.20;99.90;;;;;;5115640;28;20457;-60
2022/12/14 06:16:56;;;;;;;20.57;17.13;;;-0.30;99.90;;;;;;5115796;28;20569;-61
2022/12/14 06:19:23;;;;;;;23.87;18.33;;;-0.20;99.90;;;;;;5115451;28;20499;-61
2022/12/14 06:21:50;;;;;;;25.93;21.20;;;-0.20;99.90;;;;;;5115222;28;20534;-61
2022/12/14 06:24:17;;;;;;;22.97;16.80;;;-0.20;99.90;;;;;;5115201;28;20991;-61
2022/12/14 06:26:45;;;;;;;27.33;19.50;;;-0.10;99.90;;;;;;5115442;28;20941;-61
2022/12/14 06:29:17;;;;;;;21.77;17.87;;;-0.10;99.90;;;;;;5115012;28;20520;-61
2022/12/14 06:31:44;;;;;;;24.10;18.80;;;-0.20;99.90;;;;;;5115302;28;20470;-61
2022/12/14 06:34:12;;;;;;;25.73;18.20;;;-0.30;99.90;;;;;;5114865;28;20443;-61
2022/12/14 06:36:41;;;;;;;28.57;20.37;;;-0.30;99.90;;;;;;5114736;28;20987;-61
2022/12/14 06:39:11;;;;;;;25.20;17.83;;;-0.30;99.90;;;;;;5114816;28;20506;-61
2022/12/14 06:41:39;;;;;;;25.43;19.30;;;-0.30;99.90;;;;;;5114763;28;20442;-61
2022/12/14 06:44:08;;;;;;;27.13;20.20;;;-0.20;99.90;;;;;;5114919;28;20872;-61
2022/12/14 06:46:38;;;;;;;31.83;20.20;;;-0.10;99.90;;;;;;5114597;28;20975;-61
2022/12/14 06:49:06;;;;;;;25.80;19.30;;;-0.30;99.90;;;;;;5115144;28;20446;-61
2022/12/14 06:51:39;;;;;;;28.10;21.10;;;-0.30;99.90;;;;;;5114439;28;20932;-63
2022/12/14 06:54:07;;;;;;;26.87;19.17;;;-0.40;99.90;;;;;;5115165;28;20462;-61
2022/12/14 06:56:34;;;;;;;26.70;20.90;;;-0.50;99.90;;;;;;5114707;28;20486;-61
2022/12/14 06:59:02;;;;;;;28.80;21.40;;;-0.50;99.90;;;;;;5114841;28;20525;-62
2022/12/14 07:01:29;;;;;;;30.40;20.10;;;-0.40;99.90;;;;;;5114488;28;20439;-61
2022/12/14 07:03:59;;;;;;;28.20;22.03;;;-0.40;99.90;;;;;;5114384;28;20951;-61
2022/12/14 07:06:31;;;;;;;38.30;23.00;;;-0.30;99.90;;;;;;5114747;28;20447;-61
2022/12/14 07:08:59;;;;;;;29.17;20.50;;;-0.40;99.90;;;;;;5114520;28;20462;-61
2022/12/14 07:11:29;;;;;;;31.20;22.53;;;-0.30;99.90;;;;;;5114633;28;20439;-61
2022/12/14 07:13:59;;;;;;;31.37;20.17;;;-0.20;99.90;;;;;;5114536;28;20447;-61
2022/12/14 07:16:29;;;;;;;32.33;20.90;;;-0.20;99.90;;;;;;5113879;28;20494;-61
2022/12/14 07:18:58;;;;;;;29.23;22.17;;;-0.20;99.90;;;;;;5114460;28;20523;-61
2022/12/14 07:21:26;;;;;;;28.43;21.50;;;-0.20;99.90;;;;;;5114352;28;20470;-61
2022/12/14 07:23:53;;;;;;;32.40;22.20;;;-0.30;99.90;;;;;;5114399;28;20469;-61
2022/12/14 07:26:23;;;;;;;27.83;21.33;;;-0.40;99.90;;;;;;5114019;28;20526;-61
2022/12/14 07:28:51;;;;;;;29.50;24.27;;;-0.40;99.90;;;;;;5114005;28;20446;-61
2022/12/14 07:31:19;;;;;;;30.87;21.20;;;-0.30;99.90;;;;;;5113922;28;20931;-61
2022/12/14 07:33:47;;;;;;;35.33;21.40;;;-0.30;99.90;;;;;;5114088;28;20869;-61
2022/12/14 07:36:18;;;;;;;33.33;21.53;;;-0.30;99.90;;;;;;5113734;28;20598;-61
2022/12/14 07:38:47;;;;;;;28.30;20.20;;;-0.40;99.90;;;;;;5112635;28;20482;-61
2022/12/14 07:41:17;;;;;;;27.90;21.53;;;-0.30;99.90;;;;;;5114100;28;20526;-61
2022/12/14 07:43:44;;;;;;;28.50;19.90;;;-0.40;99.90;;;;;;5113496;28;20454;-61
2022/12/14 07:46:13;;;;;;;32.37;21.80;;;-0.30;99.90;;;;;;5113431;28;20479;-61
2022/12/14 07:48:45;;;;;;;32.57;22.50;;;-0.30;99.90;;;;;;5113556;28;20937;-61
2022/12/14 07:51:16;;;;;;;33.83;22.40;;;-0.30;99.90;;;;;;5113617;28;20442;-61
2022/12/14 07:53:44;;;;;;;34.50;22.80;;;-0.20;99.90;;;;;;5113458;28;20962;-60
2022/12/14 07:56:13;;;;;;;29.30;21.10;;;-0.20;99.90;;;;;;5113307;28;20447;-60
2022/12/14 07:58:41;;;;;;;30.20;21.97;;;-0.20;99.90;;;;;;5113442;28;20472;-61
2022/12/14 08:01:14;;;;;;;32.50;22.03;;;-0.10;99.90;;;;;;5113105;28;20459;-60
2022/12/14 08:03:43;;;;;;;30.87;22.43;;;-0.10;99.90;;;;;;5112970;28;20438;-61
2022/12/14 08:06:11;;;;;;;31.93;21.70;;;-0.10;99.90;;;;;;5113222;28;20488;-61
2022/12/14 08:08:41;;;;;;;30.83;21.20;;;0.00;99.90;;;;;;5113433;28;20454;-61
2022/12/14 08:11:09;;;;;;;29.17;20.20;;;-0.10;99.90;;;;;;5112912;28;20467;-61
2022/12/14 08:13:37;;;;;;;34.10;23.20;;;0.00;99.90;;;;;;5112598;28;20500;-60
2022/12/14 08:16:06;;;;;;;30.73;21.70;;;-0.10;99.90;;;;;;5112629;28;20473;-61
2022/12/14 08:18:34;;;;;;;32.07;22.40;;;0.10;99.90;;;;;;5112892;28;20450;-61
2022/12/14 08:21:03;;;;;;;28.97;21.07;;;0.10;99.90;;;;;;5112568;28;20520;-60
2022/12/14 08:23:31;;;;;;;26.07;20.20;;;0.10;99.90;;;;;;5113056;28;20462;-61
2022/12/14 08:26:01;;;;;;;31.30;21.87;;;0.00;99.90;;;;;;5113052;28;20541;-61
2022/12/14 08:28:30;;;;;;;35.53;21.67;;;0.00;99.90;;;;;;5113089;28;20482;-61
2022/12/14 08:30:58;;;;;;;33.30;20.43;;;0.00;99.90;;;;;;5112879;28;20465;-61
2022/12/14 08:33:25;;;;;;;34.17;21.83;;;0.10;99.90;;;;;;5113200;28;20805;-60
2022/12/14 08:35:52;;;;;;;27.33;22.37;;;0.10;99.90;;;;;;5112795;28;20478;-61
2022/12/14 08:38:20;;;;;;;27.27;20.50;;;0.30;99.90;;;;;;5112805;28;20589;-60
2022/12/14 08:40:48;;;;;;;29.13;21.90;;;0.40;99.90;;;;;;5112575;28;20494;-61
2022/12/14 08:43:16;;;;;;;29.90;22.73;;;0.50;99.90;;;;;;5112765;28;20446;-60
2022/12/14 08:45:44;;;;;;;26.40;22.00;;;0.50;99.90;;;;;;5113045;28;20497;-61
2022/12/14 08:48:11;;;;;;;31.17;21.73;;;0.50;99.90;;;;;;5113157;28;20442;-61
2022/12/14 08:50:38;;;;;;;32.60;20.97;;;0.50;99.90;;;;;;5112487;28;20542;-60
2022/12/14 08:53:05;;;;;;;29.93;20.40;;;0.60;99.90;;;;;;5112617;28;20478;-60
2022/12/14 08:55:33;;;;;;;35.27;22.57;;;0.60;99.90;;;;;;5112705;28;20885;-61
2022/12/14 08:58:00;;;;;;;34.93;24.73;;;0.50;99.90;;;;;;5112676;28;20514;-60
2022/12/14 09:00:29;;;;;;;39.83;24.00;;;0.50;99.90;;;;;;5112678;28;20586;-60
2022/12/14 09:02:56;;;;;;;32.53;23.90;;;0.50;99.90;;;;;;5113017;28;20443;-61
2022/12/14 09:05:23;;;;;;;32.10;22.47;;;0.50;99.90;;;;;;5112674;28;21013;-60
2022/12/14 09:07:51;;;;;;;29.63;22.10;;;0.50;99.90;;;;;;5112710;28;20499;-61
2022/12/14 09:10:18;;;;;;;34.63;25.33;;;0.40;99.90;;;;;;5112753;28;20467;-60
2022/12/14 09:12:45;;;;;;;35.67;24.67;;;0.40;99.90;;;;;;5112708;28;20474;-61
2022/12/14 09:15:13;;;;;;;36.87;24.97;;;0.40;99.90;;;;;;5114032;28;20515;-61
2022/12/14 09:17:41;;;;;;;35.40;26.03;;;0.50;99.90;;;;;;5116178;28;20482;-61
2022/12/14 09:20:11;;;;;;;35.80;26.27;;;0.50;99.90;;;;;;5116217;28;20543;-61
2022/12/14 09:22:39;;;;;;;31.43;23.30;;;0.40;99.90;;;;;;5115977;28;20450;-60
2022/12/14 09:25:08;;;;;;;31.40;23.07;;;0.40;99.90;;;;;;5115975;28;20962;-60
2022/12/14 09:27:35;;;;;;;36.57;25.83;;;0.20;99.90;;;;;;5116314;28;20446;-62
2022/12/14 09:30:03;;;;;;;34.23;24.50;;;0.20;99.90;;;;;;5116167;28;20816;-61
2022/12/14 09:32:30;;;;;;;36.83;24.40;;;0.30;99.90;;;;;;5115899;28;20928;-60
2022/12/14 09:34:59;;;;;;;37.07;25.17;;;0.30;99.90;;;;;;5116029;28;20450;-60
2022/12/14 09:37:26;;;;;;;32.20;23.30;;;0.30;99.90;;;;;;5115699;28;20581;-60
2022/12/14 09:39:54;;;;;;;38.93;26.17;;;0.20;99.90;;;;;;5115922;28;20583;-60
2022/12/14 09:42:48;;;;;;;33.93;24.10;;;0.10;99.90;;;;;;5115968;28;20450;-60
2022/12/14 09:45:21;;;;;;;39.40;24.60;;;0.10;99.90;;;;;;5115578;28;20423;-60
2022/12/14 09:47:57;;;;;;;32.40;24.73;;;0.10;99.90;;;;;;5115927;28;20510;-60
2022/12/14 09:50:47;;;;;;;35.67;25.67;;;0.30;99.90;;;;;;5115582;28;20474;-60
2022/12/14 09:53:57;;;;;;;;;;;;;;;;;;;;;
2022/12/14 10:03:32;;;;;;;40.40;25.93;;;0.20;99.90;;;;;;5089140;28;20475;-60
2022/12/14 10:06:25;;;;;;;35.73;24.10;;;0.20;99.90;;;;;;5115464;28;20518;-60
2022/12/14 10:09:01;;;;;;;42.50;25.03;;;0.20;99.90;;;;;;5115556;28;20450;-60
2022/12/14 10:11:36;;;;;;;42.13;27.23;;;0.30;99.90;;;;;;5115213;28;20467;-60
2022/12/14 10:14:16;;;;;;;37.93;25.30;;;0.40;99.90;;;;;;5114939;28;20473;-59
2022/12/14 10:16:54;;;;;;;36.87;26.63;;;0.50;99.90;;;;;;5115286;28;20423;-60
2022/12/14 10:19:33;;;;;;;36.60;25.27;;;0.50;99.90;;;;;;5115160;28;20527;-60
2022/12/14 10:22:09;;;;;;;36.83;25.27;;;0.50;99.90;;;;;;5115014;28;20430;-60
2022/12/14 10:24:43;;;;;;;33.23;25.60;;;0.50;99.90;;;;;;5115037;28;20464;-60
2022/12/14 10:27:15;;;;;;;38.50;25.90;;;0.40;99.90;;;;;;5114344;28;20431;-61
2022/12/14 10:29:47;;;;;;;33.73;25.90;;;0.40;99.90;;;;;;5114701;28;20545;-61
2022/12/14 10:32:21;;;;;;;36.10;25.47;;;0.30;99.90;;;;;;5115315;28;20539;-62
2022/12/14 10:34:49;;;;;;;41.03;27.23;;;0.30;99.90;;;;;;5114896;28;20441;-61
2022/12/14 10:37:37;;;;;;;34.73;25.57;;;0.40;99.90;;;;;;5114715;28;20489;-62
2022/12/14 10:40:17;;;;;;;37.33;26.20;;;0.50;99.90;;;;;;5115202;28;20498;-60
2022/12/14 10:42:55;;;;;;;33.63;25.03;;;0.50;99.90;;;;;;5115071;28;20454;-61
2022/12/14 10:45:30;;;;;;;44.83;30.33;;;0.50;99.90;;;;;;5115057;28;20449;-60
2022/12/14 10:48:21;;;;;;;40.27;28.30;;;0.40;99.90;;;;;;5114400;28;20467;-61
2022/12/14 10:50:56;;;;;;;38.13;26.83;;;0.40;99.90;;;;;;5114511;28;20467;-61
2022/12/14 10:53:31;;;;;;;37.87;28.30;;;0.40;99.90;;;;;;5114801;28;20502;-61
2022/12/14 10:56:02;;;;;;;36.60;27.30;;;0.50;99.90;;;;;;5114370;28;20905;-61
2022/12/14 10:58:29;;;;;;;45.20;30.03;;;0.60;99.90;;;;;;5114469;28;20462;-60
2022/12/14 11:00:56;;;;;;;36.43;26.80;;;0.60;99.90;;;;;;5114647;28;20853;-60
2022/12/14 11:03:24;;;;;;;45.10;30.47;;;0.60;99.90;;;;;;5114540;28;20457;-60
2022/12/14 11:05:58;;;;;;;39.27;27.60;;;0.50;99.90;;;;;;5114545;28;20447;-60
2022/12/14 11:08:42;;;;;;;37.40;27.10;;;0.60;99.90;;;;;;5114937;28;20935;-59
2022/12/14 11:11:14;;;;;;;40.23;28.60;;;0.70;99.90;;;;;;5114461;28;20512;-60
2022/12/14 11:13:51;;;;;;;39.90;26.53;;;0.90;99.90;;;;;;5114036;28;20438;-60
2022/12/14 11:16:25;;;;;;;39.00;27.87;;;0.90;99.90;;;;;;5113928;28;20462;-60
2022/12/14 11:19:00;;;;;;;34.83;27.17;;;0.80;99.90;;;;;;5113961;28;20984;-60
2022/12/14 11:21:33;;;;;;;34.70;25.07;;;0.70;99.90;;;;;;5114032;28;20993;-60
2022/12/14 11:24:02;;;;;;;36.40;26.70;;;0.70;99.90;;;;;;5114445;28;20474;-60
2022/12/14 11:26:35;;;;;;;32.43;26.40;;;0.90;99.90;;;;;;5114071;28;20499;-60
2022/12/14 11:29:04;;;;;;;35.77;27.23;;;1.00;99.90;;;;;;5113755;28;20897;-60
2022/12/14 11:31:36;;;;;;;40.13;28.47;;;1.00;99.90;;;;;;5114047;28;20793;-60
2022/12/14 11:34:06;;;;;;;35.03;25.67;;;0.90;99.90;;;;;;5113903;28;20978;-60
2022/12/14 11:36:36;;;;;;;37.07;27.93;;;0.90;99.90;;;;;;5113614;28;20916;-60
2022/12/14 11:39:17;;;;;;;35.50;26.47;;;1.00;99.90;;;;;;5112277;28;20486;-60
2022/12/14 11:41:46;;;;;;;38.07;25.47;;;1.20;99.90;;;;;;5113963;28;20431;-60
2022/12/14 11:44:23;;;;;;;34.20;26.17;;;1.20;99.90;;;;;;5113516;28;20504;-60
2022/12/14 11:46:55;;;;;;;36.00;26.33;;;1.30;99.90;;;;;;5113837;28;20427;-60
2022/12/14 11:49:28;;;;;;;40.43;25.97;;;1.40;99.90;;;;;;5113600;28;20459;-60
2022/12/14 11:51:59;;;;;;;37.27;26.60;;;1.40;99.90;;;;;;5113515;28;20907;-60
2022/12/14 11:54:28;;;;;;;41.63;29.10;;;1.40;99.90;;;;;;5113785;28;20442;-60
2022/12/14 11:57:03;;;;;;;41.40;30.97;;;1.50;99.90;;;;;;5113690;28;20457;-60
2022/12/14 11:59:37;;;;;;;52.00;32.33;;;1.60;99.90;;;;;;5113346;28;20551;-60
2022/12/14 12:02:18;;;;;;;40.07;28.97;;;1.60;99.90;;;;;;5113232;28;20507;-60
2022/12/14 12:04:48;;;;;;;38.23;26.73;;;1.50;99.90;;;;;;5113376;28;20435;-61
2022/12/14 12:07:29;;;;;;;36.27;25.47;;;1.50;99.90;;;;;;5113358;28;20936;-61
2022/12/14 12:10:02;;;;;;;39.50;28.03;;;1.70;99.90;;;;;;5113392;28;20502;-61
2022/12/14 12:12:29;;;;;;;40.87;30.53;;;1.70;99.90;;;;;;5113513;28;20480;-60
2022/12/14 12:14:58;;;;;;;35.77;27.00;;;1.70;99.90;;;;;;5113039;28;20447;-60
2022/12/14 12:17:39;;;;;;;36.53;27.53;;;1.80;99.90;;;;;;5113170;28;20887;-60
2022/12/14 12:20:21;;;;;;;36.77;27.10;;;1.70;99.90;;;;;;5113030;28;20466;-61
2022/12/14 12:22:51;;;;;;;37.70;27.83;;;1.50;99.90;;;;;;5113414;28;20434;-61
2022/12/14 12:25:22;;;;;;;48.10;30.87;;;1.40;99.90;;;;;;5113065;28;20461;-60
2022/12/14 12:27:59;;;;;;;47.03;30.80;;;1.40;99.90;;;;;;5113068;28;20466;-60
2022/12/14 12:30:29;;;;;;;41.53;30.70;;;1.40;99.90;;;;;;5113042;28;20469;-60
2022/12/14 12:33:02;;;;;;;38.70;29.27;;;1.50;99.90;;;;;;5113169;28;20431;-60
2022/12/14 12:35:37;;;;;;;39.47;30.53;;;1.50;99.90;;;;;;5113386;28;20426;-61
2022/12/14 12:38:12;;;;;;;42.07;30.73;;;1.50;99.90;;;;;;5112996;28;20507;-61
2022/12/14 12:40:58;;;;;;;44.90;29.20;;;1.40;99.90;;;;;;5112865;28;20462;-61
2022/12/14 12:43:30;;;;;;;50.47;31.23;;;1.50;99.90;;;;;;5112937;28;20857;-60
2022/12/14 12:45:59;;;;;;;43.13;31.47;;;1.60;99.90;;;;;;5112942;28;20437;-61
2022/12/14 12:48:32;;;;;;;40.03;30.43;;;1.50;99.90;;;;;;5112767;28;20469;-61
2022/12/14 12:51:02;;;;;;;36.73;27.30;;;1.50;99.90;;;;;;5116658;28;20463;-61
2022/12/14 12:53:34;;;;;;;40.13;29.40;;;1.60;99.90;;;;;;5116799;28;20460;-60
2022/12/14 12:56:08;;;;;;;40.03;28.67;;;1.50;99.90;;;;;;5116878;28;20422;-61
2022/12/14 12:58:37;;;;;;;41.60;30.30;;;1.60;99.90;;;;;;5116661;28;20494;-60
2022/12/14 13:01:19;;;;;;;50.13;31.93;;;1.50;99.90;;;;;;5116779;28;20467;-60
2022/12/14 13:03:51;;;;;;;42.97;28.37;;;1.50;99.90;;;;;;5116690;28;20431;-61
2022/12/14 13:06:23;;;;;;;36.57;28.73;;;1.50;99.90;;;;;;5116508;28;20526;-61
2022/12/14 13:08:56;;;;;;;39.87;29.77;;;1.50;99.90;;;;;;5117226;28;20449;-61
2022/12/14 13:11:28;;;;;;;40.03;30.47;;;1.30;99.90;;;;;;5116576;28;20429;-60
2022/12/14 13:14:00;;;;;;;42.00;29.53;;;1.30;99.90;;;;;;5116534;28;20442;-60
2022/12/14 13:16:32;;;;;;;39.70;29.90;;;1.40;99.90;;;;;;5116363;28;20438;-60